Time;durP1;ratioP1;P1;durP2;ratioP2;P2;SDS_P1;SDS_P2;PMS_P1;PMS_P2;Temp;Humidity;BMP_temperature;BMP_pressure;BME280_temperature;BME280_humidity;BME280_pressure;Samples;Min_cycle;Max_cycle;Signal;HPM_P1;HPM_P2
2022/05/14 00:00:07;;;;;;;14.85;2.45;;;14.90;87.10;;;;;;5051138;28;19909;-71
2022/05/14 00:03:13;;;;;;;7.43;2.70;;;14.90;86.70;;;;;;5051121;28;20036;-71
2022/05/14 00:06:20;;;;;;;11.63;3.00;;;14.80;85.70;;;;;;5050598;28;20056;-71
2022/05/14 00:09:24;;;;;;;4.60;2.08;;;14.80;85.10;;;;;;5050839;28;20056;-71
2022/05/14 00:15:52;;;;;;;10.07;2.03;;;14.90;84.20;;;;;;5049695;28;20043;-71
2022/05/14 00:18:57;;;;;;;10.43;2.28;;;14.90;83.60;;;;;;5050387;28;20055;-71
2022/05/14 00:22:01;;;;;;;10.27;2.05;;;14.90;84.10;;;;;;5038466;28;20040;-71
2022/05/14 00:25:07;;;;;;;7.93;2.17;;;14.80;84.10;;;;;;5050901;28;20047;-71
2022/05/14 00:28:13;;;;;;;7.72;2.67;;;14.90;83.00;;;;;;5050275;28;20649;-71
2022/05/14 00:31:16;;;;;;;6.35;2.05;;;14.80;82.30;;;;;;5050152;28;20044;-71
2022/05/14 00:34:20;;;;;;;11.52;2.25;;;14.80;82.30;;;;;;5050604;28;20063;-71
2022/05/14 00:37:26;;;;;;;10.73;2.38;;;14.80;82.20;;;;;;5050077;28;20048;-71
2022/05/14 00:40:43;;;;;;;7.72;2.35;;;14.80;82.60;;;;;;5050107;28;20411;-71
2022/05/14 00:43:58;;;;;;;11.07;2.53;;;14.80;83.10;;;;;;5049085;28;20036;-71
2022/05/14 00:47:09;;;;;;;12.18;2.75;;;14.80;83.80;;;;;;5050506;28;20048;-71
2022/05/14 00:50:16;;;;;;;9.75;2.30;;;14.80;84.00;;;;;;5038310;28;20056;-70
2022/05/14 00:53:35;;;;;;;9.50;2.72;;;14.70;84.70;;;;;;5038134;28;20056;-71
2022/05/14 00:57:00;;;;;;;4.57;2.30;;;14.70;84.40;;;;;;5049062;28;20048;-71
2022/05/14 01:00:19;;;;;;;5.07;2.38;;;14.70;84.50;;;;;;5050232;28;20040;-71
2022/05/14 01:03:23;;;;;;;7.35;2.60;;;14.70;85.80;;;;;;5033556;28;20040;-71
2022/05/14 01:06:29;;;;;;;9.43;2.67;;;14.70;85.30;;;;;;5037282;28;20507;-71
2022/05/14 01:09:37;;;;;;;10.88;2.17;;;14.70;86.00;;;;;;5037477;28;20037;-71
2022/05/14 01:12:48;;;;;;;10.50;2.60;;;14.70;86.40;;;;;;5037890;28;20511;-71
2022/05/14 01:15:57;;;;;;;9.77;2.70;;;14.70;86.90;;;;;;5037606;28;20064;-71
2022/05/14 01:19:05;;;;;;;8.85;2.65;;;14.60;87.50;;;;;;5049199;28;20056;-70
2022/05/14 01:22:13;;;;;;;7.18;2.47;;;14.60;86.20;;;;;;5037618;28;20044;-71
2022/05/14 01:29:15;;;;;;;7.32;2.90;;;14.60;86.30;;;;;;5053370;28;20502;-71
2022/05/14 01:32:20;;;;;;;10.85;3.60;;;14.60;86.70;;;;;;5041825;28;20048;-70
2022/05/14 01:35:25;;;;;;;9.30;2.33;;;14.60;87.40;;;;;;5041419;28;20048;-71
2022/05/14 01:38:29;;;;;;;7.22;2.25;;;14.50;87.00;;;;;;5052727;28;20051;-71
2022/05/14 01:41:34;;;;;;;14.27;2.78;;;14.50;84.50;;;;;;5041603;28;20490;-71
2022/05/14 01:44:42;;;;;;;10.20;2.67;;;14.40;84.50;;;;;;5052815;28;20495;-71
2022/05/14 01:47:46;;;;;;;5.00;1.92;;;14.40;86.30;;;;;;5052318;28;20055;-71
2022/05/14 01:50:50;;;;;;;8.57;2.20;;;14.30;85.80;;;;;;5041160;28;20395;-71
2022/05/14 01:53:56;;;;;;;5.82;1.90;;;14.30;85.20;;;;;;5052889;28;20419;-70
2022/05/14 01:57:00;;;;;;;8.68;1.80;;;14.20;84.60;;;;;;5052182;28;20380;-70
2022/05/14 02:00:07;;;;;;;11.43;1.83;;;14.10;84.10;;;;;;5053449;28;20495;-71
2022/05/14 02:03:18;;;;;;;6.47;1.90;;;14.10;84.50;;;;;;5053371;28;20040;-70
2022/05/14 02:06:24;;;;;;;9.40;2.47;;;14.10;85.30;;;;;;5040833;28;20051;-70
2022/05/14 02:09:30;;;;;;;11.95;3.30;;;14.00;85.60;;;;;;5053462;28;20048;-71
2022/05/14 02:12:36;;;;;;;9.10;2.85;;;14.00;87.20;;;;;;5052482;28;20056;-71
2022/05/14 02:15:40;;;;;;;8.77;2.58;;;13.50;93.10;;;;;;5052270;28;20052;-71
2022/05/14 02:18:45;;;;;;;13.18;2.35;;;13.30;92.80;;;;;;5040710;28;20048;-71
2022/05/14 02:21:49;;;;;;;6.63;2.28;;;13.20;91.70;;;;;;5052839;28;20047;-70
2022/05/14 02:24:54;;;;;;;8.52;2.25;;;13.20;91.70;;;;;;5040428;28;20055;-70
2022/05/14 02:27:58;;;;;;;8.88;3.00;;;13.30;91.20;;;;;;5051831;28;20044;-71
2022/05/14 02:31:03;;;;;;;7.03;2.90;;;13.20;92.20;;;;;;5051950;28;20523;-70
2022/05/14 02:34:08;;;;;;;10.15;3.55;;;13.10;93.10;;;;;;5052805;28;20494;-70
2022/05/14 02:37:14;;;;;;;9.57;3.28;;;13.00;94.80;;;;;;5050620;28;20044;-70
2022/05/14 02:40:19;;;;;;;10.40;3.40;;;13.00;96.30;;;;;;5052668;28;20044;-71
2022/05/14 02:43:26;;;;;;;8.43;3.47;;;12.90;97.30;;;;;;5052673;28;20364;-71
2022/05/14 02:46:29;;;;;;;13.40;3.90;;;12.90;98.40;;;;;;5039949;28;20420;-71
2022/05/14 02:49:33;;;;;;;10.52;3.72;;;12.80;99.40;;;;;;5052342;28;20507;-70
2022/05/14 02:52:38;;;;;;;7.47;3.10;;;12.60;99.90;;;;;;5040141;28;20055;-70
2022/05/14 02:55:42;;;;;;;14.23;3.35;;;12.60;99.90;;;;;;5051673;28;20511;-70
2022/05/14 03:02:08;;;;;;;14.00;4.20;;;12.50;99.90;;;;;;5050808;28;20044;-70
2022/05/14 03:05:14;;;;;;;13.00;3.72;;;12.50;99.90;;;;;;5039345;28;20135;-70
2022/05/14 03:08:20;;;;;;;9.98;4.28;;;12.40;99.90;;;;;;5051622;28;20052;-70
2022/05/14 03:11:24;;;;;;;9.82;3.67;;;12.40;99.90;;;;;;5052023;28;20064;-70
2022/05/14 03:14:28;;;;;;;10.98;3.97;;;12.30;99.90;;;;;;5052216;28;20044;-70
2022/05/14 03:17:35;;;;;;;15.60;3.78;;;12.30;99.90;;;;;;5051284;28;20044;-71
2022/05/14 03:20:39;;;;;;;11.02;4.32;;;12.20;99.90;;;;;;5039322;28;20395;-70
2022/05/14 03:23:44;;;;;;;10.73;4.45;;;12.10;99.90;;;;;;5051522;28;20415;-70
2022/05/14 03:26:49;;;;;;;11.07;4.72;;;12.10;99.90;;;;;;5050373;28;20044;-70
2022/05/14 03:29:54;;;;;;;11.25;4.93;;;12.00;99.90;;;;;;5050631;28;20044;-70
2022/05/14 03:32:58;;;;;;;13.45;4.53;;;12.00;99.90;;;;;;5039068;28;20415;-70
2022/05/14 03:36:03;;;;;;;12.10;5.05;;;11.90;99.90;;;;;;5050653;28;20056;-71
2022/05/14 03:39:08;;;;;;;12.80;4.78;;;11.90;99.90;;;;;;5039232;28;20040;-70
2022/05/14 03:42:13;;;;;;;17.13;5.40;;;11.90;99.90;;;;;;5051199;28;20040;-70
2022/05/14 03:45:17;;;;;;;14.77;4.78;;;11.80;99.90;;;;;;5051661;28;20048;-70
2022/05/14 03:48:21;;;;;;;20.25;5.07;;;11.80;99.90;;;;;;5051305;28;20047;-70
2022/05/14 03:51:26;;;;;;;21.17;5.90;;;11.80;99.90;;;;;;5050763;28;20051;-70
2022/05/14 03:54:32;;;;;;;9.57;4.30;;;11.80;99.90;;;;;;5039016;28;20048;-70
2022/05/14 03:57:35;;;;;;;16.15;6.15;;;11.80;99.90;;;;;;5047491;28;20051;-70
2022/05/14 04:00:40;;;;;;;16.00;4.70;;;11.80;99.90;;;;;;5050368;28;20044;-70
2022/05/14 04:03:45;;;;;;;10.55;4.45;;;11.80;99.90;;;;;;5050210;28;20036;-70
2022/05/14 04:06:49;;;;;;;16.60;5.60;;;11.80;99.90;;;;;;5050002;28;20502;-70
2022/05/14 04:09:53;;;;;;;13.32;5.38;;;11.80;99.90;;;;;;5050908;28;20399;-70
2022/05/14 04:12:57;;;;;;;12.70;5.45;;;11.80;99.90;;;;;;5049903;28;20048;-70
2022/05/14 04:16:01;;;;;;;11.00;5.22;;;11.90;99.90;;;;;;5038047;28;20392;-70
2022/05/14 04:19:07;;;;;;;14.45;5.40;;;12.00;99.90;;;;;;5049726;28;20056;-70
2022/05/14 04:22:10;;;;;;;16.40;4.88;;;12.20;99.90;;;;;;5038369;28;20044;-70
2022/05/14 04:25:15;;;;;;;11.98;5.15;;;12.40;99.90;;;;;;5038336;28;20084;-70
2022/05/14 04:28:19;;;;;;;16.65;4.95;;;12.50;99.90;;;;;;5036150;28;20055;-70
2022/05/14 04:31:23;;;;;;;10.57;4.90;;;12.70;99.90;;;;;;5049454;28;20048;-70
2022/05/14 04:34:28;;;;;;;11.20;4.80;;;12.80;99.90;;;;;;5049810;28;20051;-71
2022/05/14 04:37:33;;;;;;;15.93;5.88;;;12.90;99.90;;;;;;5037821;28;20387;-71
2022/05/14 04:40:38;;;;;;;15.80;6.07;;;12.80;99.90;;;;;;5037921;28;20051;-70
2022/05/14 04:43:43;;;;;;;14.73;5.55;;;13.00;99.90;;;;;;5049733;28;20044;-71
2022/05/14 04:46:48;;;;;;;17.05;5.93;;;13.30;99.90;;;;;;5050558;28;20040;-70
2022/05/14 04:49:52;;;;;;;13.75;5.35;;;14.20;99.90;;;;;;5038222;28;20403;-71
2022/05/14 04:52:59;;;;;;;13.15;4.93;;;15.40;99.90;;;;;;5038375;28;20052;-70
2022/05/14 04:56:05;;;;;;;13.10;4.90;;;16.40;99.90;;;;;;5038114;28;20052;-71
2022/05/14 04:59:11;;;;;;;15.18;5.40;;;16.60;99.90;;;;;;5049419;28;20048;-71
2022/05/14 05:05:38;;;;;;;12.48;5.82;;;16.70;99.90;;;;;;5053858;28;20048;-71
2022/05/14 05:08:43;;;;;;;12.00;5.50;;;16.20;99.90;;;;;;5042300;28;20380;-71
2022/05/14 05:11:48;;;;;;;13.68;5.40;;;15.90;99.90;;;;;;5054601;28;20051;-71
2022/05/14 05:14:51;;;;;;;15.27;5.28;;;16.30;99.90;;;;;;5054585;28;20051;-71
2022/05/14 05:17:56;;;;;;;13.43;4.93;;;16.80;99.90;;;;;;5053849;28;20052;-71
2022/05/14 05:21:02;;;;;;;9.82;4.63;;;17.40;99.90;;;;;;5041827;28;20060;-71
2022/05/14 05:24:06;;;;;;;9.13;4.25;;;18.00;99.90;;;;;;5053975;28;20519;-71
2022/05/14 05:27:10;;;;;;;18.02;5.57;;;18.80;99.90;;;;;;5053767;28;20056;-71
2022/05/14 05:30:15;;;;;;;25.98;7.78;;;19.80;99.90;;;;;;5053967;28;20056;-71
2022/05/14 05:33:22;;;;;;;43.30;18.10;;;20.30;99.90;;;;;;5053992;28;20052;-71
2022/05/14 05:36:27;;;;;;;47.65;18.10;;;20.50;99.90;;;;;;5049298;28;20498;-71
2022/05/14 05:39:32;;;;;;;31.55;13.88;;;21.20;99.70;;;;;;5053817;28;20036;-71
2022/05/14 05:42:37;;;;;;;25.40;10.38;;;21.70;98.80;;;;;;5053940;28;20415;-71
2022/05/14 05:45:44;;;;;;;29.77;10.32;;;22.00;97.40;;;;;;5053844;28;20059;-71
2022/05/14 05:48:48;;;;;;;59.72;26.48;;;21.50;97.20;;;;;;5053846;28;20052;-71
2022/05/14 05:51:51;;;;;;;44.58;17.70;;;21.20;96.80;;;;;;5053676;28;20499;-71
2022/05/14 05:58:20;;;;;;;21.20;8.20;;;21.10;97.20;;;;;;5052706;28;20036;-71
2022/05/14 06:01:24;;;;;;;21.40;7.25;;;20.40;98.10;;;;;;5053178;28;20396;-71
2022/05/14 06:04:28;;;;;;;19.15;6.20;;;21.00;97.80;;;;;;5053269;28;20048;-71
2022/05/14 06:07:35;;;;;;;15.82;7.05;;;21.20;96.70;;;;;;5053195;28;20392;-71
2022/05/14 06:10:39;;;;;;;19.30;7.57;;;19.70;97.60;;;;;;5053392;28;20052;-71
2022/05/14 06:13:44;;;;;;;22.42;8.68;;;20.90;97.20;;;;;;5053194;28;20068;-72
2022/05/14 06:16:48;;;;;;;25.48;10.32;;;20.90;97.20;;;;;;5052992;28;20052;-71
2022/05/14 06:19:52;;;;;;;20.00;8.18;;;21.60;96.10;;;;;;5052995;28;20384;-72
2022/05/14 06:22:56;;;;;;;17.90;5.43;;;21.80;96.50;;;;;;5053084;28;20060;-72
2022/05/14 06:26:00;;;;;;;15.15;5.28;;;22.60;94.90;;;;;;5053163;28;20052;-71
2022/05/14 06:29:05;;;;;;;14.05;5.97;;;21.30;94.90;;;;;;5053217;28;20047;-71
2022/05/14 06:32:10;;;;;;;14.43;5.18;;;20.40;95.60;;;;;;5052983;28;20044;-72
2022/05/14 06:35:14;;;;;;;15.23;6.13;;;21.00;95.10;;;;;;5053150;28;20043;-72
2022/05/14 06:38:19;;;;;;;14.18;5.93;;;22.30;94.40;;;;;;5052131;28;20051;-71
2022/05/14 06:41:23;;;;;;;17.30;6.05;;;22.60;93.60;;;;;;5052468;28;20048;-72
2022/05/14 06:44:27;;;;;;;13.90;5.30;;;23.70;92.20;;;;;;5052582;28;20036;-72
2022/05/14 06:47:32;;;;;;;18.40;5.22;;;23.70;92.20;;;;;;5052323;28;20040;-72
2022/05/14 06:50:58;;;;;;;11.88;4.22;;;24.30;91.80;;;;;;5052590;28;20055;-72
2022/05/14 06:54:08;;;;;;;15.50;5.20;;;24.70;90.70;;;;;;5052606;28;20040;-72
2022/05/14 06:57:14;;;;;;;17.53;5.50;;;24.70;91.30;;;;;;5051995;28;20055;-72
2022/05/14 07:00:19;;;;;;;12.52;5.03;;;22.60;92.30;;;;;;5052448;28;20286;-72
2022/05/14 07:06:59;;;;;;;11.27;4.50;;;23.70;91.90;;;;;;5001326;28;20044;-73
2022/05/14 07:10:04;;;;;;;16.27;5.50;;;24.10;91.70;;;;;;5052382;28;20052;-72
2022/05/14 07:13:08;;;;;;;17.05;6.13;;;25.10;90.20;;;;;;5051876;28;20518;-72
2022/05/14 07:16:12;;;;;;;14.68;5.35;;;24.00;90.80;;;;;;5051952;28;20044;-72
2022/05/14 07:19:17;;;;;;;17.10;6.03;;;26.00;90.30;;;;;;5051509;28;20048;-72
2022/05/14 07:22:21;;;;;;;21.15;5.40;;;26.80;88.20;;;;;;5051458;28;20052;-72
2022/05/14 07:25:26;;;;;;;13.45;5.70;;;27.70;86.90;;;;;;5051096;28;20040;-72
2022/05/14 07:28:30;;;;;;;16.77;8.48;;;27.30;84.20;;;;;;5051775;28;20052;-72
2022/05/14 07:31:35;;;;;;;20.75;9.43;;;27.40;84.70;;;;;;5051726;28;20396;-72
2022/05/14 07:34:40;;;;;;;21.10;10.73;;;26.30;85.10;;;;;;5051897;28;20047;-72
2022/05/14 07:37:49;;;;;;;22.13;12.32;;;25.60;86.60;;;;;;5051310;28;20060;-72
2022/05/14 07:40:54;;;;;;;19.98;11.55;;;25.70;85.90;;;;;;5039392;28;20052;-72
2022/05/14 07:43:59;;;;;;;19.17;9.48;;;28.40;84.50;;;;;;5051635;28;20059;-72
2022/05/14 07:47:04;;;;;;;20.20;8.65;;;28.60;83.10;;;;;;5051493;28;20044;-72
2022/05/14 07:50:09;;;;;;;16.58;7.78;;;28.50;82.80;;;;;;5051095;28;20048;-72
2022/05/14 07:53:15;;;;;;;15.98;6.80;;;28.30;81.90;;;;;;5051458;28;20063;-73
2022/05/14 07:56:20;;;;;;;16.10;7.57;;;26.70;83.00;;;;;;5050620;28;20056;-72
2022/05/14 07:59:23;;;;;;;19.08;6.95;;;28.40;83.30;;;;;;5051369;28;20040;-72
2022/05/14 08:02:31;;;;;;;12.32;6.95;;;28.80;82.30;;;;;;5050928;28;20462;-72
2022/05/14 08:05:35;;;;;;;15.38;7.32;;;29.90;80.60;;;;;;5050240;28;20057;-72
2022/05/14 08:08:38;;;;;;;11.85;5.82;;;29.50;79.30;;;;;;5048508;28;20475;-73
2022/05/14 08:11:43;;;;;;;21.35;6.75;;;31.30;77.70;;;;;;5051569;28;20056;-73
2022/05/14 08:14:47;;;;;;;15.18;5.90;;;31.70;76.30;;;;;;5051525;28;20052;-73
2022/05/14 08:17:52;;;;;;;15.73;6.88;;;30.70;75.50;;;;;;5050729;28;20388;-73
2022/05/14 08:20:57;;;;;;;18.42;6.68;;;31.10;76.70;;;;;;5051000;28;20368;-72
2022/05/14 08:27:26;;;;;;;12.68;5.32;;;31.30;75.50;;;;;;5050303;28;20052;-73
2022/05/14 08:30:32;;;;;;;14.52;4.75;;;33.30;73.80;;;;;;5050756;28;20051;-73
2022/05/14 08:33:37;;;;;;;16.27;5.70;;;35.60;70.50;;;;;;5050865;28;20495;-73
2022/05/14 08:36:42;;;;;;;18.98;4.50;;;36.00;67.80;;;;;;5049368;28;20360;-73
2022/05/14 08:39:46;;;;;;;15.30;4.28;;;36.10;66.40;;;;;;5051077;28;20048;-72
2022/05/14 08:42:54;;;;;;;10.95;3.75;;;36.60;65.30;;;;;;5050645;28;20052;-73
2022/05/14 08:45:59;;;;;;;7.45;3.20;;;37.80;64.70;;;;;;5050934;28;20055;-74
2022/05/14 08:49:41;;;;;;;9.52;3.22;;;38.80;62.20;;;;;;5050925;28;20219;-71
2022/05/14 08:52:45;;;;;;;10.93;2.80;;;39.00;61.20;;;;;;5037582;28;20052;-73
2022/05/14 08:56:26;;;;;;;13.88;3.13;;;39.70;59.10;;;;;;5050334;28;20047;-73
2022/05/14 08:59:55;;;;;;;10.07;2.80;;;39.10;58.60;;;;;;5050494;28;20048;-73
2022/05/14 09:03:00;;;;;;;7.80;3.20;;;37.20;58.10;;;;;;5050867;28;20040;-72
2022/05/14 09:06:04;;;;;;;9.25;3.03;;;36.70;60.30;;;;;;5050417;28;20063;-73
2022/05/14 09:09:10;;;;;;;11.85;3.08;;;36.10;59.70;;;;;;5050914;28;20064;-73
2022/05/14 09:12:20;;;;;;;8.70;2.75;;;37.10;59.50;;;;;;5050601;28;20056;-73
2022/05/14 09:15:28;;;;;;;9.57;3.45;;;38.70;59.40;;;;;;5050798;28;20052;-71
2022/05/14 09:18:42;;;;;;;10.40;2.70;;;40.20;58.50;;;;;;5050048;28;20128;-71
2022/05/14 09:21:56;;;;;;;7.57;3.50;;;38.90;57.10;;;;;;5050489;28;20380;-73
2022/05/14 09:25:03;;;;;;;9.23;2.92;;;39.50;57.90;;;;;;5050736;28;20470;-72
2022/05/14 09:28:12;;;;;;;9.48;2.90;;;36.20;59.40;;;;;;5049947;28;20048;-72
2022/05/14 09:31:36;;;;;;;11.25;2.92;;;35.60;59.40;;;;;;5050555;28;20375;-73
2022/05/14 09:34:43;;;;;;;11.98;3.20;;;34.10;58.00;;;;;;5050291;28;20043;-72
2022/05/14 09:37:47;;;;;;;7.35;2.80;;;33.90;59.40;;;;;;5049802;28;20092;-73
2022/05/14 09:40:54;;;;;;;10.57;2.67;;;37.20;59.30;;;;;;5050335;28;20044;-73
2022/05/14 09:43:59;;;;;;;11.43;2.83;;;39.10;57.00;;;;;;5050195;28;20044;-72
2022/05/14 09:47:06;;;;;;;11.77;3.10;;;36.80;58.00;;;;;;5050610;28;20048;-73
2022/05/14 09:50:18;;;;;;;12.20;3.15;;;38.20;58.50;;;;;;5041929;28;20044;-72
2022/05/14 09:53:32;;;;;;;9.93;3.20;;;38.80;58.00;;;;;;5052878;28;20040;-73
2022/05/14 09:56:55;;;;;;;11.70;3.50;;;34.70;59.10;;;;;;5052114;28;20514;-73
2022/05/14 10:00:07;;;;;;;9.93;3.13;;;34.30;58.60;;;;;;5052822;28;20052;-72
2022/05/14 10:03:32;;;;;;;15.95;3.63;;;36.50;59.20;;;;;;5052485;28;20399;-72
2022/05/14 10:07:00;;;;;;;12.25;3.60;;;36.80;57.60;;;;;;5052212;28;20044;-73
2022/05/14 10:10:19;;;;;;;11.00;3.55;;;33.90;60.50;;;;;;5052549;28;21009;-73
2022/05/14 10:14:20;;;;;;;9.00;2.53;;;36.30;59.80;;;;;;5052358;28;20047;-71
2022/05/14 10:17:58;;;;;;;14.30;3.38;;;38.80;58.10;;;;;;5052182;28;20040;-74
2022/05/14 10:21:40;;;;;;;9.43;3.00;;;40.20;58.20;;;;;;5052289;28;20036;-73
2022/05/14 10:28:30;;;;;;;11.23;3.00;;;40.00;59.00;;;;;;5052023;28;20048;-73
2022/05/14 10:32:01;;;;;;;15.20;3.10;;;42.20;57.10;;;;;;5052121;28;20514;-73
2022/05/14 10:35:15;;;;;;;10.88;3.05;;;42.90;55.00;;;;;;5052150;28;20064;-73
2022/05/14 10:38:34;;;;;;;6.90;2.85;;;42.30;54.80;;;;;;5051741;28;20036;-73
2022/05/14 10:41:41;;;;;;;9.93;2.80;;;40.60;54.40;;;;;;5052170;28;20052;-72
2022/05/14 10:44:53;;;;;;;9.85;2.53;;;40.80;54.00;;;;;;5052139;28;20376;-72
2022/05/14 10:48:15;;;;;;;11.07;2.72;;;37.60;55.20;;;;;;5051548;28;20048;-73
2022/05/14 10:51:25;;;;;;;7.75;2.72;;;39.80;55.20;;;;;;5051694;28;20044;-72
2022/05/14 10:54:32;;;;;;;;;;;38.50;54.60;;;;;;5052339;28;20047;-73
2022/05/14 10:57:49;;;;;;;15.80;2.95;;;40.00;56.30;;;;;;5051362;28;19921;-73
2022/05/14 11:00:59;;;;;;;7.20;2.88;;;36.50;57.60;;;;;;5039475;28;20040;-73
2022/05/14 11:04:23;;;;;;;7.70;2.63;;;36.10;57.00;;;;;;5051676;28;20048;-72
2022/05/14 11:07:35;;;;;;;11.02;2.90;;;37.90;57.80;;;;;;5051114;28;20048;-73
2022/05/14 11:10:40;;;;;;;10.07;3.03;;;40.00;56.00;;;;;;5051827;28;20052;-73
2022/05/14 11:14:04;;;;;;;11.00;2.97;;;37.90;56.10;;;;;;5051379;28;20036;-72
2022/05/14 11:17:18;;;;;;;11.25;3.33;;;40.10;54.40;;;;;;5051265;28;20498;-70
2022/05/14 11:20:23;;;;;;;7.10;2.60;;;41.00;54.20;;;;;;5051450;28;20048;-73
2022/05/14 11:23:27;;;;;;;8.15;3.17;;;41.80;54.50;;;;;;5051467;28;20052;-73
2022/05/14 11:26:44;;;;;;;9.52;2.58;;;41.80;54.50;;;;;;5051102;28;20349;-73
2022/05/14 11:29:57;;;;;;;8.52;2.70;;;41.40;54.70;;;;;;5051113;28;20052;-74
2022/05/14 11:33:04;;;;;;;8.27;2.92;;;40.90;55.40;;;;;;5051125;28;20036;-74
2022/05/14 11:36:11;;;;;;;11.25;2.78;;;40.20;56.10;;;;;;5050688;28;20039;-76
2022/05/14 11:39:25;;;;;;;10.35;2.83;;;39.50;55.10;;;;;;5050983;28;20052;-73
2022/05/14 11:42:30;;;;;;;10.00;2.63;;;39.00;56.00;;;;;;5051030;28;20035;-73
2022/05/14 11:45:38;;;;;;;7.05;2.92;;;40.30;56.90;;;;;;5050704;28;20040;-73
2022/05/14 11:49:16;;;;;;;10.68;2.40;;;40.80;55.40;;;;;;5050548;28;20044;-73
2022/05/14 11:52:31;;;;;;;11.00;3.22;;;41.50;55.30;;;;;;5050708;28;20597;-74
2022/05/14 11:55:57;;;;;;;13.52;2.70;;;40.30;55.70;;;;;;5050640;28;20044;-74
2022/05/14 11:59:16;;;;;;;15.20;2.92;;;40.60;56.60;;;;;;5050481;28;20043;-74
2022/05/14 12:02:53;;;;;;;7.68;2.60;;;40.40;56.20;;;;;;5050855;28;20055;-75
2022/05/14 12:06:20;;;;;;;11.32;3.38;;;40.00;55.60;;;;;;5050758;28;20047;-73
2022/05/14 12:09:48;;;;;;;6.90;3.30;;;39.10;55.90;;;;;;5050501;28;20036;-73
2022/05/14 12:13:04;;;;;;;8.82;3.03;;;36.80;56.40;;;;;;5050440;28;20048;-73
2022/05/14 12:16:09;;;;;;;4.40;2.30;;;37.60;58.10;;;;;;5050663;28;20113;-74
2022/05/14 12:19:29;;;;;;;13.63;3.67;;;34.20;58.10;;;;;;5050628;28;20104;-73
2022/05/14 12:22:34;;;;;;;12.15;3.28;;;31.00;63.50;;;;;;5051332;28;20522;-73
2022/05/14 12:25:43;;;;;;;10.00;3.05;;;32.40;63.20;;;;;;5050781;28;20040;-72
2022/05/14 12:28:48;;;;;;;10.57;2.92;;;34.40;62.30;;;;;;5051199;28;20052;-72
2022/05/14 12:35:29;;;;;;;24.98;4.95;;;31.30;62.00;;;;;;5050512;28;20044;-73
2022/05/14 13:04:51;;;;;;;15.50;3.78;;;34.00;63.10;;;;;;5051153;28;20030;-72
2022/05/14 13:08:02;;;;;;;14.40;4.05;;;34.00;62.80;;;;;;5049575;28;20052;-73
2022/05/14 13:11:15;;;;;;;11.50;3.03;;;34.10;63.00;;;;;;5049615;28;20059;-72
2022/05/14 13:14:24;;;;;;;11.48;3.60;;;34.10;63.10;;;;;;5049973;28;20040;-73
2022/05/14 13:17:37;;;;;;;12.20;3.33;;;34.00;62.70;;;;;;5049447;28;20048;-73
2022/05/14 13:20:42;;;;;;;11.32;3.03;;;33.90;65.20;;;;;;5050132;28;20055;-71
2022/05/14 13:24:03;;;;;;;15.93;3.40;;;33.70;63.50;;;;;;5052838;28;20040;-72
2022/05/14 13:27:10;;;;;;;11.23;3.70;;;34.00;61.90;;;;;;5053217;28;20047;-72
2022/05/14 13:30:27;;;;;;;8.93;3.33;;;33.40;62.90;;;;;;5053958;28;20048;-73
2022/05/14 13:33:34;;;;;;;13.80;2.95;;;33.30;63.10;;;;;;5054187;28;20044;-72
2022/05/14 13:40:16;;;;;;;9.88;3.15;;;32.90;63.60;;;;;;5053834;28;20064;-72
2022/05/14 13:43:32;;;;;;;9.10;2.58;;;33.00;63.70;;;;;;5054055;28;20387;-73
2022/05/14 13:46:46;;;;;;;15.18;2.85;;;33.10;65.10;;;;;;5060345;28;20039;-72
2022/05/14 13:49:55;;;;;;;6.82;2.47;;;33.10;64.60;;;;;;5049533;28;20048;-73
2022/05/14 13:53:00;;;;;;;8.90;3.33;;;33.00;65.10;;;;;;5064309;28;20136;-72
2022/05/14 13:56:30;;;;;;;8.80;3.10;;;32.10;64.40;;;;;;5061539;28;20052;-72
2022/05/14 13:59:36;;;;;;;17.80;3.80;;;31.60;64.70;;;;;;5055958;28;20379;-72
2022/05/14 14:02:43;;;;;;;15.00;3.45;;;31.70;66.80;;;;;;5057909;28;20036;-71
2022/05/14 14:05:49;;;;;;;13.18;3.45;;;31.90;65.90;;;;;;5053350;28;20040;-73
2022/05/14 14:08:54;;;;;;;16.48;3.92;;;30.30;69.20;;;;;;5059172;28;20051;-72
2022/05/14 14:11:58;;;;;;;9.50;3.67;;;30.60;72.70;;;;;;5059003;28;20040;-72
2022/05/14 14:15:03;;;;;;;17.90;3.95;;;31.00;70.60;;;;;;5062741;28;20056;-73
2022/05/14 14:18:07;;;;;;;20.17;3.95;;;30.60;69.30;;;;;;5063721;28;20548;-73
2022/05/14 14:21:13;;;;;;;15.13;3.70;;;30.60;71.90;;;;;;5073615;28;20039;-71
2022/05/14 14:24:20;;;;;;;10.63;3.60;;;30.30;72.40;;;;;;5059338;28;20032;-72
2022/05/14 14:27:26;;;;;;;12.95;3.58;;;30.10;74.40;;;;;;5054564;28;20053;-73
2022/05/14 14:30:29;;;;;;;10.68;4.05;;;30.20;73.70;;;;;;5062449;28;20040;-71
2022/05/14 14:33:35;;;;;;;13.32;4.55;;;30.30;73.90;;;;;;5032173;28;20658;-72
2022/05/14 14:36:39;;;;;;;34.50;7.57;;;30.20;73.20;;;;;;5048207;28;20039;-71
2022/05/14 14:39:44;;;;;;;13.48;3.92;;;30.20;74.40;;;;;;5058681;28;20873;-71
2022/05/14 14:42:49;;;;;;;13.40;5.03;;;30.10;73.50;;;;;;5054857;28;20379;-72
2022/05/14 14:45:54;;;;;;;15.38;3.97;;;29.90;74.20;;;;;;5060529;28;20044;-73
2022/05/14 14:49:03;;;;;;;17.30;4.82;;;29.70;72.90;;;;;;5052658;28;20048;-73
2022/05/14 14:52:07;;;;;;;12.80;4.18;;;29.30;73.40;;;;;;5047036;28;20040;-72
2022/05/14 14:55:12;;;;;;;12.93;3.58;;;29.20;74.10;;;;;;5063817;28;20498;-71
2022/05/14 14:58:17;;;;;;;22.48;4.88;;;29.00;74.00;;;;;;5019587;28;20388;-72
2022/05/14 15:01:28;;;;;;;12.63;3.83;;;29.00;75.00;;;;;;5055026;28;20036;-72
2022/05/14 15:04:44;;;;;;;;;;;28.90;74.20;;;;;;5045811;28;20041;-72
2022/05/14 15:07:49;;;;;;;9.90;3.88;;;28.90;75.10;;;;;;5052044;28;19912;-71
2022/05/14 15:10:53;;;;;;;11.23;3.60;;;28.80;75.20;;;;;;5062544;28;20047;-72
2022/05/14 15:14:02;;;;;;;11.85;4.03;;;28.80;75.30;;;;;;5051722;28;20056;-73
2022/05/14 15:17:06;;;;;;;14.88;3.65;;;28.70;75.70;;;;;;5055967;28;20044;-73
2022/05/14 15:20:11;;;;;;;12.75;4.32;;;28.60;75.80;;;;;;5054954;28;20055;-72
2022/05/14 15:23:17;;;;;;;9.27;4.18;;;28.60;77.00;;;;;;5057619;28;20047;-72
2022/05/14 15:26:22;;;;;;;11.98;3.97;;;28.50;77.00;;;;;;5065838;28;20047;-72
2022/05/14 15:29:26;;;;;;;11.65;3.85;;;28.50;77.60;;;;;;5058952;28;20055;-73
2022/05/14 15:32:30;;;;;;;10.30;4.18;;;28.30;78.10;;;;;;5057828;28;20542;-72
2022/05/14 15:35:34;;;;;;;12.55;4.80;;;28.20;79.30;;;;;;5039136;28;20047;-72
2022/05/14 15:38:38;;;;;;;15.85;4.50;;;27.90;78.90;;;;;;5047630;28;20052;-72
2022/05/14 15:41:46;;;;;;;18.08;4.15;;;27.60;79.60;;;;;;5051971;28;20040;-72
2022/05/14 15:45:04;;;;;;;10.73;4.72;;;27.60;80.90;;;;;;5048782;28;20036;-73
2022/05/14 15:48:20;;;;;;;25.83;4.80;;;27.20;79.00;;;;;;5050672;28;20044;-73
2022/05/14 15:51:26;;;;;;;16.77;4.30;;;27.10;79.70;;;;;;5051316;28;20052;-73
2022/05/14 15:54:30;;;;;;;14.38;4.30;;;27.00;79.60;;;;;;5045622;28;20376;-73
2022/05/14 15:57:34;;;;;;;14.85;4.72;;;26.80;79.50;;;;;;5030240;28;20037;-72
2022/05/14 16:00:39;;;;;;;15.68;4.05;;;26.80;81.10;;;;;;5030835;28;20077;-72
2022/05/14 16:03:43;;;;;;;13.05;4.22;;;26.80;81.00;;;;;;5030432;28;20384;-72
2022/05/14 16:06:47;;;;;;;13.82;4.03;;;26.80;81.10;;;;;;5030155;28;20036;-72
2022/05/14 16:16:36;;;;;;;10.68;4.30;;;26.60;81.60;;;;;;5050115;28;20521;-72
2022/05/14 16:19:42;;;;;;;9.77;4.22;;;26.30;82.20;;;;;;5044041;28;20614;-72
2022/05/14 16:22:46;;;;;;;12.90;4.32;;;26.10;82.20;;;;;;5049296;28;20040;-73
2022/05/14 16:25:57;;;;;;;15.18;4.10;;;26.00;82.70;;;;;;5049117;28;20044;-71
2022/05/14 16:29:06;;;;;;;12.82;4.90;;;25.90;82.50;;;;;;5048729;28;20068;-72
2022/05/14 16:32:09;;;;;;;16.33;4.75;;;25.80;82.70;;;;;;5045313;28;20036;-72
2022/05/14 16:35:14;;;;;;;13.05;4.40;;;25.60;83.10;;;;;;5041060;28;20040;-72
2022/05/14 16:38:19;;;;;;;17.85;4.70;;;25.50;83.80;;;;;;5049419;28;20036;-72
2022/05/14 16:41:24;;;;;;;12.77;4.63;;;25.60;85.10;;;;;;5049901;28;20380;-72
2022/05/14 16:44:29;;;;;;;12.95;5.03;;;25.50;84.60;;;;;;5049734;28;20051;-71
2022/05/14 16:47:33;;;;;;;16.48;5.03;;;25.40;85.40;;;;;;5049327;28;20120;-72
2022/05/14 16:50:37;;;;;;;14.32;4.53;;;25.40;86.70;;;;;;5049915;28;20403;-72
2022/05/14 16:53:42;;;;;;;26.25;5.68;;;25.40;86.70;;;;;;5049828;28;20064;-71
2022/05/14 16:56:46;;;;;;;20.48;5.05;;;25.30;86.80;;;;;;5049741;28;20056;-72
2022/05/14 16:59:50;;;;;;;11.98;5.03;;;25.20;87.10;;;;;;5053747;28;20052;-71
2022/05/14 17:02:54;;;;;;;18.92;4.95;;;25.00;87.80;;;;;;5053925;28;20040;-71
2022/05/14 17:05:58;;;;;;;13.27;4.97;;;25.00;88.80;;;;;;5054297;28;20383;-71
2022/05/14 17:09:03;;;;;;;13.85;4.55;;;25.00;89.30;;;;;;5053781;28;20055;-72
2022/05/14 17:12:07;;;;;;;25.40;5.65;;;24.90;89.70;;;;;;5054041;28;20495;-71
2022/05/14 17:15:11;;;;;;;9.13;4.85;;;24.80;90.50;;;;;;5053875;28;20055;-71
2022/05/14 17:18:17;;;;;;;14.90;5.07;;;24.70;89.90;;;;;;5053033;28;20051;-71